createdAt,value
2018-11-05T00:00:31.701Z,13.50
2018-11-05T00:03:01.761Z,13.77
2018-11-05T00:05:31.726Z,12.83
2018-11-05T00:08:01.705Z,13.90
2018-11-05T00:10:31.640Z,12.63
2018-11-05T00:13:01.763Z,13.27
2018-11-05T00:15:31.766Z,13.60
2018-11-05T00:18:01.774Z,13.80
2018-11-05T00:20:31.865Z,13.60
2018-11-05T00:23:01.942Z,14.00
2018-11-05T00:25:31.904Z,13.70
2018-11-05T00:28:01.999Z,13.40
2018-11-05T00:30:32.077Z,14.27
2018-11-05T00:33:02.068Z,16.33
2018-11-05T00:35:32.132Z,13.83
2018-11-05T00:38:02.157Z,13.97
2018-11-05T00:40:32.147Z,14.97
2018-11-05T00:43:02.147Z,14.30
2018-11-05T00:45:32.181Z,14.27
2018-11-05T00:48:02.076Z,14.73
2018-11-05T00:50:32.109Z,14.30
2018-11-05T00:53:02.069Z,15.20
2018-11-05T00:55:32.128Z,13.97
2018-11-05T00:58:02.131Z,14.67
2018-11-05T01:00:32.216Z,14.90
2018-11-05T01:03:02.210Z,14.67
2018-11-05T01:05:32.204Z,14.83
2018-11-05T01:08:02.268Z,15.10
2018-11-05T01:10:32.269Z,14.07
2018-11-05T01:13:02.318Z,14.23
2018-11-05T01:15:32.356Z,15.07
2018-11-05T01:18:02.381Z,14.50
2018-11-05T01:20:32.322Z,14.20
2018-11-05T01:23:02.251Z,14.90
2018-11-05T01:25:32.233Z,15.30
2018-11-05T01:28:02.177Z,15.37
2018-11-05T01:30:32.127Z,15.33
2018-11-05T01:33:02.080Z,14.97
2018-11-05T01:35:32.097Z,15.23
2018-11-05T01:38:02.077Z,15.03
2018-11-05T01:40:32.065Z,15.63
2018-11-05T01:43:02.124Z,15.23
2018-11-05T01:45:32.152Z,15.43
2018-11-05T01:48:03.236Z,15.53
2018-11-05T01:50:33.257Z,16.17
2018-11-05T01:53:03.264Z,15.60
2018-11-05T01:55:33.456Z,15.30
2018-11-05T01:58:03.400Z,14.30
2018-11-05T02:00:33.455Z,15.20
2018-11-05T02:03:03.375Z,15.67
2018-11-05T02:05:33.436Z,15.33
2018-11-05T02:08:03.442Z,14.67
2018-11-05T02:10:33.531Z,15.40
2018-11-05T02:13:03.571Z,15.30
2018-11-05T02:15:33.578Z,16.47
2018-11-05T02:18:03.619Z,14.80
2018-11-05T02:20:33.645Z,15.80
2018-11-05T02:23:03.541Z,15.03
2018-11-05T02:25:33.464Z,15.10
2018-11-05T02:28:03.370Z,15.50
2018-11-05T02:30:33.294Z,15.43
2018-11-05T02:33:03.291Z,17.00
2018-11-05T02:35:33.250Z,16.13
2018-11-05T02:38:03.213Z,15.60
2018-11-05T02:40:33.181Z,15.83
2018-11-05T02:43:03.258Z,16.23
2018-11-05T02:45:34.386Z,15.30
2018-11-05T02:48:04.105Z,16.40
2018-11-05T02:50:34.077Z,16.30
2018-11-05T02:53:04.117Z,16.27
2018-11-05T02:55:34.191Z,16.93
2018-11-05T02:58:04.123Z,17.47
2018-11-05T03:00:34.157Z,16.63
2018-11-05T03:03:04.315Z,17.13
2018-11-05T03:05:34.297Z,16.50
2018-11-05T03:08:04.420Z,16.73
2018-11-05T03:10:35.426Z,16.77
2018-11-05T03:13:05.481Z,17.50
2018-11-05T03:15:35.391Z,17.67
2018-11-05T03:18:05.551Z,16.63
2018-11-05T03:20:36.608Z,17.43
2018-11-05T03:23:06.754Z,17.03
2018-11-05T03:25:36.757Z,19.00
2018-11-05T03:28:06.839Z,18.80
2018-11-05T03:30:36.832Z,17.80
2018-11-05T03:33:06.985Z,18.93
2018-11-05T03:35:37.029Z,19.20
2018-11-05T03:38:06.997Z,18.93
2018-11-05T03:40:36.951Z,18.33
2018-11-05T03:43:06.962Z,19.10
2018-11-05T03:45:36.968Z,18.20
2018-11-05T03:48:07.127Z,19.53
2018-11-05T03:50:37.157Z,18.80
2018-11-05T03:53:07.242Z,18.57
2018-11-05T03:55:37.387Z,19.67
2018-11-05T03:58:09.399Z,19.83
2018-11-05T04:00:40.406Z,17.13
2018-11-05T04:03:10.493Z,18.97
2018-11-05T04:05:40.467Z,18.53
2018-11-05T04:08:10.541Z,19.87
2018-11-05T04:10:40.720Z,19.20
2018-11-05T04:13:10.832Z,18.40
2018-11-05T04:15:41.216Z,19.17
2018-11-05T04:18:11.133Z,19.00
2018-11-05T04:20:41.225Z,20.50
2018-11-05T04:23:11.358Z,19.57
2018-11-05T04:25:41.380Z,19.87
2018-11-05T04:28:11.545Z,19.87
2018-11-05T04:30:41.849Z,19.73
2018-11-05T04:33:11.952Z,19.13
2018-11-05T04:35:41.878Z,20.37
2018-11-05T04:38:12.884Z,19.10
2018-11-05T04:40:43.081Z,19.43
2018-11-05T04:43:13.132Z,19.80
2018-11-05T04:45:43.279Z,19.50
2018-11-05T04:48:13.234Z,19.40
2018-11-05T04:50:43.314Z,20.30
2018-11-05T04:53:13.415Z,19.27
2018-11-05T04:55:43.459Z,19.40
2018-11-05T04:58:13.497Z,19.83
2018-11-05T05:00:43.879Z,18.60
2018-11-05T05:03:14.097Z,19.93
2018-11-05T05:05:44.049Z,19.77
2018-11-05T05:08:14.097Z,19.37
2018-11-05T05:10:44.117Z,20.27
2018-11-05T05:13:14.211Z,20.20
2018-11-05T05:15:44.314Z,19.67
2018-11-05T05:18:14.359Z,19.83
2018-11-05T05:20:44.376Z,18.33
2018-11-05T05:23:14.332Z,18.73
2018-11-05T05:25:44.315Z,18.13
2018-11-05T05:28:14.411Z,18.97
2018-11-05T05:30:45.094Z,18.90
2018-11-05T05:33:15.337Z,19.77
2018-11-05T05:35:50.268Z,19.43
2018-11-05T05:38:21.408Z,19.33
2018-11-05T05:40:51.643Z,18.83
2018-11-05T05:43:23.734Z,19.20
2018-11-05T05:45:53.746Z,19.13
2018-11-05T05:48:25.276Z,18.57
2018-11-05T05:50:56.425Z,18.87
2018-11-05T05:53:26.621Z,18.27
2018-11-05T05:55:56.735Z,19.17
2018-11-05T05:58:28.872Z,19.17
2018-11-05T06:00:59.093Z,18.97
2018-11-05T06:03:29.251Z,19.17
2018-11-05T06:05:59.464Z,19.27
2018-11-05T06:08:29.550Z,19.30
2018-11-05T06:10:59.838Z,19.03
2018-11-05T06:13:30.010Z,19.10
2018-11-05T06:16:00.540Z,19.93
2018-11-05T06:18:30.566Z,19.07
2018-11-05T06:21:00.654Z,18.87
2018-11-05T06:23:30.758Z,17.63
2018-11-05T06:26:00.867Z,18.60
2018-11-05T06:28:31.046Z,18.97
2018-11-05T06:31:01.291Z,19.20
2018-11-05T06:33:31.396Z,20.33
2018-11-05T06:36:01.500Z,19.33
2018-11-05T06:38:31.739Z,19.30
2018-11-05T06:41:02.930Z,18.67
2018-11-05T06:43:32.870Z,18.30
2018-11-05T06:46:02.868Z,18.30
2018-11-05T06:48:32.905Z,18.17
2018-11-05T06:51:02.983Z,17.80
2018-11-05T06:53:32.970Z,34.10
2018-11-05T06:56:02.968Z,17.97
2018-11-05T06:58:33.020Z,17.87
2018-11-05T07:01:03.075Z,17.57
2018-11-05T07:03:33.283Z,17.03
2018-11-05T07:06:03.475Z,16.50
2018-11-05T07:08:33.544Z,17.33
2018-11-05T07:11:03.563Z,16.83
2018-11-05T07:13:33.532Z,16.53
2018-11-05T07:16:03.711Z,17.63
2018-11-05T07:18:33.749Z,17.40
2018-11-05T07:21:03.753Z,17.17
2018-11-05T07:23:33.949Z,15.83
2018-11-05T07:26:03.985Z,16.30
2018-11-05T07:28:33.998Z,15.77
2018-11-05T07:31:04.129Z,16.30
2018-11-05T07:33:34.321Z,17.23
2018-11-05T07:36:04.271Z,15.43
2018-11-05T07:38:34.366Z,15.63
2018-11-05T07:41:04.452Z,17.10
2018-11-05T07:43:34.453Z,17.23
2018-11-05T07:46:04.534Z,15.63
2018-11-05T07:48:34.653Z,14.77
2018-11-05T07:51:04.703Z,15.33
2018-11-05T07:53:34.712Z,14.20
2018-11-05T07:56:04.946Z,14.30
2018-11-05T07:58:34.982Z,14.43
2018-11-05T08:01:05.180Z,13.97
2018-11-05T08:03:35.361Z,13.27
2018-11-05T08:06:05.410Z,13.73
2018-11-05T08:08:35.446Z,13.90
2018-11-05T08:11:05.623Z,13.23
2018-11-05T08:13:35.677Z,12.40
2018-11-05T08:16:05.936Z,12.20
2018-11-05T08:18:35.964Z,13.37
2018-11-05T08:21:06.079Z,12.03
2018-11-05T08:23:36.139Z,12.40
2018-11-05T08:26:06.538Z,12.40
2018-11-05T08:28:36.548Z,12.60
2018-11-05T08:31:07.054Z,12.23
2018-11-05T08:33:37.081Z,12.33
2018-11-05T08:36:07.258Z,12.10
2018-11-05T08:38:37.293Z,11.97
2018-11-05T08:41:07.331Z,10.97
2018-11-05T08:43:37.384Z,10.93
2018-11-05T08:46:07.413Z,10.73
2018-11-05T08:48:37.372Z,11.17
2018-11-05T08:51:07.611Z,11.47
2018-11-05T08:53:37.517Z,11.60
2018-11-05T08:56:07.481Z,10.97
2018-11-05T08:58:37.550Z,10.67
2018-11-05T09:01:12.515Z,11.03
2018-11-05T09:03:42.467Z,10.27
2018-11-05T09:06:12.555Z,10.13
2018-11-05T09:08:43.282Z,10.20
2018-11-05T09:11:13.949Z,9.70
2018-11-05T09:13:43.514Z,10.00
2018-11-05T09:16:13.571Z,10.17
2018-11-05T09:18:43.646Z,9.87
2018-11-05T09:21:13.664Z,10.20
2018-11-05T09:23:43.710Z,10.00
2018-11-05T09:26:13.878Z,9.43
2018-11-05T09:28:43.923Z,9.90
2018-11-05T09:31:13.961Z,9.33
2018-11-05T09:33:44.093Z,9.73
2018-11-05T09:36:14.152Z,10.07
2018-11-05T09:38:44.173Z,10.07
2018-11-05T09:41:14.152Z,9.57
2018-11-05T09:43:44.234Z,9.90
2018-11-05T09:46:14.149Z,9.87
2018-11-05T09:48:44.118Z,9.30
2018-11-05T09:51:14.179Z,9.43
2018-11-05T09:53:44.197Z,9.53
2018-11-05T09:56:14.193Z,9.37
2018-11-05T09:58:44.207Z,9.33
2018-11-05T10:01:14.250Z,9.43
2018-11-05T10:03:49.342Z,8.93
2018-11-05T10:06:19.309Z,9.73
2018-11-05T10:08:49.314Z,9.43
2018-11-05T10:11:19.587Z,8.93
2018-11-05T10:13:49.612Z,8.90
2018-11-05T10:16:19.695Z,8.40
2018-11-05T10:18:49.624Z,8.60
2018-11-05T10:21:19.597Z,8.60
2018-11-05T10:23:49.593Z,9.20
2018-11-05T10:26:19.734Z,8.60
2018-11-05T10:28:49.755Z,9.13
2018-11-05T10:31:24.614Z,9.20
2018-11-05T10:33:54.624Z,8.37
2018-11-05T10:36:24.802Z,8.73
2018-11-05T10:38:54.688Z,9.37
2018-11-05T10:41:24.783Z,8.83
2018-11-05T10:43:54.809Z,8.97
2018-11-05T10:46:24.976Z,9.03
2018-11-05T10:48:55.038Z,8.57
2018-11-05T10:51:25.162Z,8.73
2018-11-05T10:53:55.109Z,9.07
2018-11-05T10:56:25.229Z,8.87
2018-11-05T10:58:55.251Z,8.90
2018-11-05T11:01:30.203Z,8.87
2018-11-05T11:04:05.262Z,8.90
2018-11-05T11:06:35.211Z,8.63
2018-11-05T11:09:06.063Z,8.30
2018-11-05T11:11:36.137Z,8.77
2018-11-05T11:14:06.136Z,8.20
2018-11-05T11:16:36.191Z,10.00
2018-11-05T11:19:06.252Z,9.40
2018-11-05T11:21:36.325Z,9.53
2018-11-05T11:24:06.757Z,9.20
2018-11-05T11:26:36.820Z,8.63
2018-11-05T11:29:07.251Z,8.77
2018-11-05T11:31:37.301Z,8.00
2018-11-05T11:34:07.434Z,9.27
2018-11-05T11:36:37.590Z,9.43
2018-11-05T11:39:09.607Z,9.20
2018-11-05T11:41:39.735Z,8.67
2018-11-05T11:44:09.935Z,8.23
2018-11-05T11:46:39.977Z,7.53
2018-11-05T11:49:10.507Z,8.03
2018-11-05T11:51:40.539Z,8.17
2018-11-05T11:54:10.321Z,8.80
2018-11-05T11:56:40.297Z,8.03
2018-11-05T11:59:10.265Z,8.20
2018-11-05T12:01:45.439Z,8.40
2018-11-05T12:04:15.402Z,8.33
2018-11-05T12:06:45.615Z,8.67
2018-11-05T12:09:15.641Z,8.37
2018-11-05T12:11:45.698Z,8.10
2018-11-05T12:14:15.720Z,8.77
2018-11-05T12:16:45.720Z,8.27
2018-11-05T12:19:15.811Z,8.20
2018-11-05T12:21:45.847Z,8.03
2018-11-05T12:24:15.956Z,8.03
2018-11-05T12:26:46.041Z,7.40
2018-11-05T12:29:16.083Z,7.40
2018-11-05T12:31:46.172Z,7.93
2018-11-05T12:34:16.096Z,7.67
2018-11-05T12:36:46.181Z,7.97
2018-11-05T12:39:16.142Z,7.17
2018-11-05T12:41:46.143Z,8.07
2018-11-05T12:44:16.131Z,7.40
2018-11-05T12:46:46.147Z,7.00
2018-11-05T12:49:16.218Z,7.23
2018-11-05T12:51:46.309Z,6.73
2018-11-05T12:54:16.385Z,6.67
2018-11-05T12:56:46.431Z,6.67
2018-11-05T12:59:16.433Z,6.80
2018-11-05T13:01:46.294Z,6.80
2018-11-05T13:04:16.395Z,7.00
2018-11-05T13:06:46.376Z,6.90
2018-11-05T13:09:16.378Z,6.80
2018-11-05T13:11:46.376Z,7.13
2018-11-05T13:14:16.381Z,7.20
2018-11-05T13:16:46.325Z,7.07
2018-11-05T13:19:16.285Z,7.20
2018-11-05T13:21:46.192Z,6.73
2018-11-05T13:24:16.268Z,6.83
2018-11-05T13:26:46.269Z,7.27
2018-11-05T13:29:16.259Z,7.70
2018-11-05T13:31:46.323Z,7.10
2018-11-05T13:34:16.371Z,7.87
2018-11-05T13:36:46.503Z,7.03
2018-11-05T13:39:16.533Z,7.50
2018-11-05T13:41:46.538Z,7.47
2018-11-05T13:44:16.591Z,7.80
2018-11-05T13:46:46.909Z,7.20
2018-11-05T13:49:16.606Z,7.83
2018-11-05T13:51:46.523Z,7.17
2018-11-05T13:54:16.565Z,7.10
2018-11-05T13:56:46.421Z,7.20
2018-11-05T13:59:16.388Z,7.23
2018-11-05T14:01:46.407Z,7.17
2018-11-05T14:04:16.469Z,7.47
2018-11-05T14:06:46.886Z,7.60
2018-11-05T14:09:16.801Z,7.17
2018-11-05T14:11:46.681Z,7.83
2018-11-05T14:14:16.814Z,7.67
2018-11-05T14:16:46.752Z,7.43
2018-11-05T14:19:16.764Z,7.57
2018-11-05T14:21:46.796Z,7.80
2018-11-05T14:24:16.886Z,8.00
2018-11-05T14:26:46.880Z,7.80
2018-11-05T14:29:17.250Z,8.10
2018-11-05T14:31:46.925Z,7.40
2018-11-05T14:34:17.086Z,8.33
2018-11-05T14:36:47.183Z,7.87
2018-11-05T14:39:17.046Z,8.23
2018-11-05T14:41:47.108Z,8.97
2018-11-05T14:44:17.245Z,8.10
2018-11-05T14:46:47.331Z,7.90
2018-11-05T14:49:17.330Z,8.53
2018-11-05T14:51:47.378Z,8.27
2018-11-05T14:54:17.342Z,8.23
2018-11-05T14:56:47.320Z,8.37
2018-11-05T14:59:17.329Z,8.17
2018-11-05T15:01:47.293Z,8.30
2018-11-05T15:04:17.299Z,8.73
2018-11-05T15:06:47.230Z,7.97
2018-11-05T15:09:17.202Z,7.87
2018-11-05T15:11:47.202Z,8.07
2018-11-05T15:14:17.138Z,8.00
2018-11-05T15:16:47.195Z,8.37
2018-11-05T15:19:17.537Z,8.47
2018-11-05T15:21:47.097Z,8.37
2018-11-05T15:24:17.132Z,9.07
2018-11-05T15:26:47.181Z,8.70
2018-11-05T15:29:17.239Z,9.17
2018-11-05T15:31:47.269Z,8.73
2018-11-05T15:34:17.222Z,8.27
2018-11-05T15:36:47.164Z,8.63
2018-11-05T15:39:17.197Z,8.60
2018-11-05T15:41:47.272Z,9.30
2018-11-05T15:44:17.260Z,9.30
2018-11-05T15:46:47.352Z,9.17
2018-11-05T15:49:17.513Z,8.20
2018-11-05T15:51:47.956Z,9.20
2018-11-05T15:54:17.823Z,9.43
2018-11-05T15:56:47.744Z,10.03
2018-11-05T15:59:17.707Z,10.47
2018-11-05T16:01:47.709Z,10.67
2018-11-05T16:04:17.834Z,11.20
2018-11-05T16:06:47.955Z,10.90
2018-11-05T16:09:18.244Z,12.10
2018-11-05T16:11:48.394Z,11.27
2018-11-05T16:14:18.477Z,12.07
2018-11-05T16:16:48.484Z,10.90
2018-11-05T16:19:18.562Z,12.13
2018-11-05T16:21:48.620Z,11.87
2018-11-05T16:24:18.702Z,11.73
2018-11-05T16:26:48.638Z,17.97
2018-11-05T16:29:18.643Z,12.80
2018-11-05T16:31:48.685Z,12.53
2018-11-05T16:34:18.880Z,13.30
2018-11-05T16:36:54.373Z,13.17
2018-11-05T16:39:24.875Z,12.57
2018-11-05T16:41:55.254Z,13.93
2018-11-05T16:44:25.307Z,13.50
2018-11-05T16:46:55.440Z,13.73
2018-11-05T16:49:25.667Z,14.03
2018-11-05T16:52:01.544Z,14.57
2018-11-05T16:54:31.522Z,14.77
2018-11-05T16:57:01.561Z,15.33
2018-11-05T16:59:31.634Z,16.67
2018-11-05T17:02:02.318Z,15.93
2018-11-05T17:04:31.887Z,15.33
2018-11-05T17:07:01.902Z,15.90
2018-11-05T17:09:31.996Z,16.97
2018-11-05T17:12:02.476Z,16.77
2018-11-05T17:14:32.414Z,17.30
2018-11-05T17:17:02.507Z,16.33
2018-11-05T17:19:32.967Z,16.47
2018-11-05T17:22:03.012Z,17.20
2018-11-05T17:24:33.060Z,16.40
2018-11-05T17:27:03.108Z,17.20
2018-11-05T17:29:33.104Z,17.07
2018-11-05T17:32:03.096Z,16.87
2018-11-05T17:34:33.121Z,18.00
2018-11-05T17:37:03.054Z,18.33
2018-11-05T17:39:36.696Z,18.40
2018-11-05T17:45:23.468Z,17.97
2018-11-05T17:47:53.565Z,17.17
2018-11-05T17:50:24.561Z,18.50
2018-11-05T17:52:54.585Z,18.30
2018-11-05T17:55:24.627Z,18.67
2018-11-05T17:57:54.708Z,17.80
2018-11-05T18:00:24.701Z,19.37
2018-11-05T18:02:54.678Z,18.73
2018-11-05T18:05:25.050Z,18.80
2018-11-05T18:07:55.157Z,18.10
2018-11-05T18:10:25.157Z,19.10
2018-11-05T18:12:55.131Z,18.17
2018-11-05T18:15:25.285Z,17.73
2018-11-05T18:17:55.361Z,18.73
2018-11-05T18:20:25.761Z,17.70
2018-11-05T18:22:55.962Z,19.03
2018-11-05T18:25:26.917Z,19.73
2018-11-05T18:27:59.104Z,19.13
2018-11-05T18:30:29.160Z,19.67
2018-11-05T18:33:09.883Z,19.30
2018-11-05T18:35:40.621Z,19.43
2018-11-05T18:38:10.645Z,19.43
2018-11-05T18:40:40.664Z,19.20
2018-11-05T18:43:16.184Z,19.63
2018-11-05T18:45:46.199Z,18.27
2018-11-05T18:48:17.133Z,18.93
2018-11-05T18:50:47.261Z,19.63
2018-11-05T18:53:17.439Z,20.63
2018-11-05T18:55:47.529Z,20.40
2018-11-05T18:58:17.417Z,19.83
2018-11-05T19:00:47.610Z,20.77
2018-11-05T19:03:17.728Z,21.00
2018-11-05T19:05:47.739Z,22.43
2018-11-05T19:08:17.667Z,20.73
2018-11-05T19:10:47.613Z,21.53
2018-11-05T19:13:17.815Z,20.43
2018-11-05T19:15:47.882Z,20.80
2018-11-05T19:18:17.965Z,20.87
2018-11-05T19:20:48.126Z,21.13
2018-11-05T19:23:18.188Z,20.33
2018-11-05T19:25:48.275Z,19.23
2018-11-05T19:28:18.416Z,19.60
2018-11-05T19:30:48.518Z,19.43
2018-11-05T19:33:18.852Z,19.83
2018-11-05T19:35:48.881Z,19.90
2018-11-05T19:38:18.996Z,19.80
2018-11-05T19:40:49.151Z,20.30
2018-11-05T19:43:19.930Z,19.03
2018-11-05T19:45:50.090Z,20.00
2018-11-05T19:48:20.264Z,20.50
2018-11-05T19:50:55.773Z,19.87
2018-11-05T19:53:25.859Z,20.50
2018-11-05T19:55:55.894Z,20.90
2018-11-05T19:58:25.836Z,20.27
2018-11-05T20:00:55.976Z,20.10
2018-11-05T20:03:25.943Z,20.83
2018-11-05T20:08:55.872Z,20.67
2018-11-05T20:11:25.798Z,20.20
2018-11-05T20:14:09.189Z,21.07
2018-11-05T20:16:39.295Z,21.10
2018-11-05T20:19:09.462Z,20.63
2018-11-05T20:21:39.361Z,19.67
2018-11-05T20:24:09.377Z,21.50
2018-11-05T20:26:39.356Z,21.73
2018-11-05T20:29:09.601Z,20.67
2018-11-05T20:31:39.916Z,21.10
2018-11-05T20:34:10.068Z,20.37
2018-11-05T20:36:39.894Z,21.30
2018-11-05T20:39:10.896Z,20.13
2018-11-05T20:41:43.073Z,21.47
2018-11-05T20:44:13.233Z,20.70
2018-11-05T20:46:43.309Z,19.33
2018-11-05T20:49:13.284Z,19.50
2018-11-05T20:51:43.284Z,20.70
2018-11-05T20:54:13.381Z,21.40
2018-11-05T20:56:44.391Z,20.87
2018-11-05T20:59:14.461Z,21.57
2018-11-05T21:01:44.499Z,20.13
2018-11-05T21:04:14.465Z,20.47
2018-11-05T21:06:44.383Z,19.40
2018-11-05T21:09:14.745Z,20.43
2018-11-05T21:11:44.815Z,19.83
2018-11-05T21:14:14.850Z,20.10
2018-11-05T21:16:44.943Z,20.90
2018-11-05T21:19:15.105Z,20.93
2018-11-05T21:21:45.424Z,21.27
2018-11-05T21:24:16.305Z,21.57
2018-11-05T21:26:46.357Z,20.80
2018-11-05T21:29:16.358Z,20.50
2018-11-05T21:31:46.426Z,20.13
2018-11-05T21:34:17.588Z,20.30
2018-11-05T21:36:47.631Z,20.83
2018-11-05T21:39:17.725Z,22.13
2018-11-05T21:41:47.767Z,20.80
2018-11-05T21:44:17.742Z,21.27
2018-11-05T21:46:48.843Z,21.27
2018-11-05T21:49:18.937Z,21.77
2018-11-05T21:51:49.013Z,21.80
2018-11-05T21:54:19.082Z,20.83
2018-11-05T21:56:49.020Z,21.73
2018-11-05T21:59:19.134Z,21.47
2018-11-05T22:01:49.049Z,20.63
2018-11-05T22:04:19.175Z,20.63
2018-11-05T22:06:49.160Z,22.27
2018-11-05T22:09:19.287Z,21.50
2018-11-05T22:11:49.279Z,21.60
2018-11-05T22:14:19.429Z,20.50
2018-11-05T22:16:49.452Z,21.23
2018-11-05T22:19:19.409Z,20.77
2018-11-05T22:21:49.469Z,21.50
2018-11-05T22:24:19.473Z,20.87
2018-11-05T22:26:49.480Z,20.20
2018-11-05T22:29:19.343Z,20.20
2018-11-05T22:31:49.269Z,21.07
2018-11-05T22:34:19.213Z,20.90
2018-11-05T22:36:49.252Z,21.20
2018-11-05T22:39:19.186Z,22.13
2018-11-05T22:41:49.234Z,20.80
2018-11-05T22:44:19.271Z,21.63
2018-11-05T22:46:49.277Z,20.60
2018-11-05T22:49:19.361Z,19.73
2018-11-05T22:51:49.366Z,20.03
2018-11-05T22:54:19.306Z,20.17
2018-11-05T22:56:49.255Z,20.13
2018-11-05T22:59:19.199Z,22.00
2018-11-05T23:01:53.231Z,21.73
2018-11-05T23:04:23.311Z,19.47
2018-11-05T23:06:53.431Z,20.90
2018-11-05T23:09:23.733Z,21.13
2018-11-05T23:11:53.819Z,20.57
2018-11-05T23:14:23.858Z,21.73
2018-11-05T23:16:53.939Z,19.33
2018-11-05T23:19:24.051Z,19.43
2018-11-05T23:21:54.103Z,20.07
2018-11-05T23:24:24.095Z,18.80
2018-11-05T23:26:54.105Z,20.40
2018-11-05T23:29:24.115Z,20.43
2018-11-05T23:31:54.164Z,19.40
2018-11-05T23:34:24.304Z,18.47
2018-11-05T23:36:54.318Z,19.13
2018-11-05T23:39:24.270Z,18.53
2018-11-05T23:41:54.294Z,18.37
2018-11-05T23:44:24.362Z,19.57
2018-11-05T23:46:54.345Z,21.03
2018-11-05T23:49:24.392Z,19.27
2018-11-05T23:51:54.494Z,17.70
2018-11-05T23:54:24.340Z,17.70
2018-11-05T23:56:54.452Z,17.67
2018-11-05T23:59:24.518Z,18.73
